X  Κλείσε Στοιχεία αεροπορικών μετεωρολογικών δεδομένων METAR        LGTS Thessaloniki Macedonia International
θερμοκρασία
11°C θερμοκρασία
11°C Σημείο δρόσου
100% Υγρασία



Ανεμος
1 M/S
2 MPH
4 KM/H
2 KTS



-1°
VRB
Τρέχουσες συνθήκες

Partly Cloudy Μερικώς συννεφιασμένος
πίεση 1010 (hPa) - 29.82 (inHg)
Ορατότητα 5 (μίλι) - 8 (km)
Aεροδρόμιο
Κωδικός αεροδρομίου LGTS

Τοποθεσία: Thessaloniki Macedonia International
Απόσταση: 85 (km)

Metar:
METAR LGTS 012320Z VRB02KT 8000 SCT005 SCT020 11/11 Q1010 NOSIG

ώρα: 02-03-2024 01:20 EET